createdAt,value
2019-02-26T00:00:36.866Z,37.83
2019-02-26T00:03:05.173Z,39.23
2019-02-26T00:05:33.452Z,38.25
2019-02-26T00:08:02.622Z,39.60
2019-02-26T00:10:31.540Z,36.80
2019-02-26T00:13:00.999Z,38.53
2019-02-26T00:15:31.326Z,39.97
2019-02-26T00:17:59.297Z,43.80
2019-02-26T00:20:29.625Z,39.90
2019-02-26T00:22:59.655Z,41.50
2019-02-26T00:25:27.663Z,37.47
2019-02-26T00:27:56.888Z,41.23
2019-02-26T00:30:25.979Z,36.53
2019-02-26T00:32:55.429Z,36.07
2019-02-26T00:35:25.325Z,39.93
2019-02-26T00:37:55.788Z,39.50
2019-02-26T00:40:24.125Z,40.05
2019-02-26T00:42:54.614Z,39.75
2019-02-26T00:45:24.806Z,39.10
2019-02-26T00:47:52.421Z,39.78
2019-02-26T00:50:20.714Z,38.58
2019-02-26T00:52:48.990Z,39.50
2019-02-26T00:55:17.281Z,38.80
2019-02-26T00:57:45.565Z,42.10
2019-02-26T01:00:17.224Z,43.20
2019-02-26T01:02:45.798Z,45.50
2019-02-26T01:05:15.846Z,43.10
2019-02-26T01:07:46.690Z,41.60
2019-02-26T01:10:16.386Z,43.17
2019-02-26T01:12:44.479Z,40.37
2019-02-26T01:15:17.595Z,41.65
2019-02-26T01:17:45.950Z,40.57
2019-02-26T01:20:15.803Z,40.25
2019-02-26T01:22:45.371Z,43.37
2019-02-26T01:25:15.937Z,48.13
2019-02-26T01:27:47.604Z,43.97
2019-02-26T01:30:18.151Z,42.10
2019-02-26T01:32:45.374Z,37.80
2019-02-26T01:35:13.736Z,40.27
2019-02-26T01:37:42.030Z,38.65
2019-02-26T01:40:13.802Z,42.10
2019-02-26T01:42:47.058Z,44.27
2019-02-26T01:45:13.677Z,42.57
2019-02-26T01:47:42.854Z,44.53
2019-02-26T01:50:13.418Z,46.17
2019-02-26T01:52:42.824Z,45.08
2019-02-26T01:55:11.736Z,45.98
2019-02-26T01:57:42.548Z,42.10
2019-02-26T02:00:13.206Z,39.93
2019-02-26T02:02:41.523Z,43.17
2019-02-26T02:05:09.985Z,43.10
2019-02-26T02:07:38.323Z,45.73
2019-02-26T02:10:15.405Z,44.60
2019-02-26T02:12:43.678Z,41.67
2019-02-26T02:15:17.925Z,39.50
2019-02-26T02:18:09.275Z,40.63
2019-02-26T02:20:37.564Z,40.17
2019-02-26T02:23:07.095Z,44.90
2019-02-26T02:25:36.195Z,45.07
2019-02-26T02:28:05.446Z,42.80
2019-02-26T02:30:35.613Z,43.80
2019-02-26T02:33:03.818Z,42.03
2019-02-26T02:35:32.089Z,43.47
2019-02-26T02:38:02.802Z,42.80
2019-02-26T02:40:30.359Z,46.10
2019-02-26T02:43:03.964Z,46.93
2019-02-26T02:45:28.640Z,47.87
2019-02-26T02:48:00.360Z,45.60
2019-02-26T02:50:26.911Z,47.90
2019-02-26T02:52:56.901Z,45.30
2019-02-26T02:55:25.189Z,48.02
2019-02-26T02:57:55.153Z,45.67
2019-02-26T03:00:25.996Z,45.57
2019-02-26T03:02:55.655Z,47.57
2019-02-26T03:05:23.486Z,45.73
2019-02-26T03:07:54.029Z,43.97
2019-02-26T03:10:26.094Z,46.08
2019-02-26T03:23:04.091Z,47.53
2019-02-26T03:25:32.118Z,48.48
2019-02-26T03:28:00.425Z,44.27
2019-02-26T03:30:33.887Z,43.03
2019-02-26T03:33:04.103Z,46.60
2019-02-26T03:35:28.753Z,48.45
2019-02-26T03:37:58.048Z,48.00
2019-02-26T03:40:29.852Z,46.33
2019-02-26T03:42:57.079Z,45.30
2019-02-26T03:45:25.361Z,45.63
2019-02-26T03:47:55.348Z,46.03
2019-02-26T03:50:26.312Z,45.47
2019-02-26T03:52:53.712Z,48.40
2019-02-26T03:55:22.010Z,46.50
2019-02-26T03:57:53.329Z,46.40
2019-02-26T04:00:20.643Z,46.57
2019-02-26T04:02:51.641Z,47.87
2019-02-26T04:05:18.994Z,47.47
2019-02-26T04:07:49.876Z,51.25
2019-02-26T04:10:17.291Z,47.93
2019-02-26T04:12:48.700Z,49.33
2019-02-26T04:15:17.634Z,46.73
2019-02-26T04:17:45.936Z,46.80
2019-02-26T04:20:15.035Z,47.13
2019-02-26T04:22:48.887Z,45.20
2019-02-26T04:25:22.099Z,44.45
2019-02-26T04:28:07.982Z,47.98
2019-02-26T04:30:56.389Z,48.17
2019-02-26T04:33:50.453Z,44.38
2019-02-26T04:36:27.696Z,45.55
2019-02-26T04:39:28.918Z,48.50
2019-02-26T04:42:19.756Z,48.07
2019-02-26T04:45:09.074Z,45.83
2019-02-26T04:47:48.731Z,48.03
2019-02-26T04:50:16.315Z,45.00
2019-02-26T04:52:44.620Z,52.88
2019-02-26T04:55:12.901Z,49.17
2019-02-26T04:57:43.330Z,49.60
2019-02-26T05:00:11.362Z,48.00
2019-02-26T05:02:39.642Z,47.60
2019-02-26T05:05:08.413Z,51.67
2019-02-26T05:07:38.585Z,46.90
2019-02-26T05:10:07.620Z,48.00
2019-02-26T05:12:37.897Z,46.37
2019-02-26T05:15:11.518Z,45.97
2019-02-26T05:17:39.802Z,50.20
2019-02-26T05:20:10.639Z,50.50
2019-02-26T05:22:38.097Z,51.58
2019-02-26T05:25:11.028Z,52.78
2019-02-26T05:27:39.709Z,48.70
2019-02-26T05:30:09.872Z,51.27
2019-02-26T05:32:39.076Z,51.30
2019-02-26T05:35:07.351Z,50.23
2019-02-26T05:37:40.206Z,47.00
2019-02-26T05:40:09.534Z,47.67
2019-02-26T05:42:36.759Z,47.40
2019-02-26T05:45:09.173Z,44.60
2019-02-26T05:47:36.083Z,45.15
2019-02-26T05:50:13.030Z,49.65
2019-02-26T05:52:37.136Z,49.18
2019-02-26T05:55:05.378Z,46.77
2019-02-26T05:57:33.674Z,48.92
2019-02-26T06:00:01.951Z,47.58
2019-02-26T06:02:30.218Z,52.10
2019-02-26T06:04:58.513Z,55.70
2019-02-26T06:07:28.109Z,52.00
2019-02-26T06:09:59.094Z,52.57
2019-02-26T06:12:26.790Z,49.35
2019-02-26T06:14:57.668Z,50.00
2019-02-26T06:17:25.077Z,52.03
2019-02-26T06:19:54.697Z,51.93
2019-02-26T06:22:24.352Z,51.27
2019-02-26T06:24:57.238Z,48.50
2019-02-26T06:27:25.124Z,47.53
2019-02-26T06:29:57.309Z,50.33
2019-02-26T06:32:27.419Z,54.73
2019-02-26T06:34:52.976Z,48.57
2019-02-26T06:37:23.594Z,50.45
2019-02-26T06:39:54.873Z,47.60
2019-02-26T06:42:21.993Z,49.30
2019-02-26T06:44:51.414Z,53.10
2019-02-26T06:47:21.128Z,48.98
2019-02-26T06:49:50.314Z,47.10
2019-02-26T06:52:19.730Z,47.80
2019-02-26T06:54:54.188Z,45.75
2019-02-26T06:57:18.032Z,45.77
2019-02-26T06:59:46.314Z,48.27
2019-02-26T07:02:14.608Z,47.08
2019-02-26T07:04:42.912Z,52.13
2019-02-26T07:07:14.172Z,53.90
2019-02-26T07:09:41.956Z,50.97
2019-02-26T07:12:11.189Z,53.03
2019-02-26T07:14:39.477Z,50.97
2019-02-26T07:17:07.776Z,49.35
2019-02-26T07:19:38.017Z,54.58
2019-02-26T07:22:08.293Z,54.27
2019-02-26T07:24:38.355Z,53.27
2019-02-26T07:27:08.910Z,52.27
2019-02-26T07:29:40.014Z,51.63
2019-02-26T07:32:06.949Z,46.03
2019-02-26T07:34:35.236Z,48.07
2019-02-26T07:37:04.260Z,51.40
2019-02-26T07:39:33.513Z,47.90
2019-02-26T07:42:01.808Z,49.70
2019-02-26T07:44:30.092Z,48.53
2019-02-26T07:47:00.646Z,48.30
2019-02-26T07:49:28.387Z,47.93
2019-02-26T07:51:58.276Z,47.80
2019-02-26T07:54:28.669Z,48.03
2019-02-26T07:56:57.623Z,44.93
2019-02-26T07:59:27.819Z,47.10
2019-02-26T08:01:56.240Z,46.97
2019-02-26T08:04:24.519Z,40.90
2019-02-26T08:06:56.265Z,50.73
2019-02-26T08:09:23.658Z,46.00
2019-02-26T08:11:51.948Z,44.27
2019-02-26T08:14:20.972Z,41.57
2019-02-26T08:16:53.618Z,43.27
2019-02-26T08:19:20.225Z,41.60
2019-02-26T08:21:50.252Z,41.50
2019-02-26T08:24:20.347Z,43.63
2019-02-26T08:26:49.771Z,40.63
2019-02-26T08:29:18.140Z,37.70
2019-02-26T08:31:47.443Z,41.60
2019-02-26T08:34:16.396Z,40.53
2019-02-26T08:36:46.827Z,42.57
2019-02-26T08:39:15.688Z,39.55
2019-02-26T08:41:56.043Z,41.58
2019-02-26T08:44:24.311Z,40.53
2019-02-26T08:46:52.600Z,36.88
2019-02-26T08:49:22.537Z,39.40
2019-02-26T08:51:50.844Z,39.17
2019-02-26T08:54:21.276Z,39.50
2019-02-26T08:56:49.117Z,39.50
2019-02-26T08:59:19.595Z,38.23
2019-02-26T09:01:47.413Z,36.20
2019-02-26T09:04:17.463Z,37.70
2019-02-26T09:06:45.679Z,36.60
2019-02-26T09:09:13.947Z,34.97
2019-02-26T09:11:42.217Z,37.30
2019-02-26T09:14:12.126Z,36.40
2019-02-26T09:16:40.471Z,32.70
2019-02-26T09:19:08.744Z,33.33
2019-02-26T09:21:39.524Z,33.78
2019-02-26T09:24:07.707Z,35.37
2019-02-26T09:26:36.120Z,36.87
2019-02-26T09:29:04.395Z,36.50
2019-02-26T09:31:32.674Z,36.50
2019-02-26T09:34:00.951Z,37.13
2019-02-26T09:36:29.527Z,34.90
2019-02-26T09:38:57.785Z,36.88
2019-02-26T09:41:26.063Z,37.63
2019-02-26T09:43:54.340Z,37.80
2019-02-26T09:46:22.618Z,35.60
2019-02-26T09:48:50.896Z,34.20
2019-02-26T09:51:19.171Z,35.20
2019-02-26T09:53:49.365Z,35.98
2019-02-26T09:56:17.459Z,37.28
2019-02-26T09:58:48.219Z,38.35
2019-02-26T10:01:17.950Z,34.43
2019-02-26T10:03:45.812Z,35.35
2019-02-26T10:06:15.903Z,34.60
2019-02-26T10:08:46.010Z,34.98
2019-02-26T10:11:16.014Z,32.28
2019-02-26T10:13:44.897Z,32.73
2019-02-26T10:16:14.076Z,34.53
2019-02-26T10:18:42.348Z,31.48
2019-02-26T10:21:12.053Z,33.15
2019-02-26T10:23:40.601Z,32.90
2019-02-26T10:26:10.723Z,32.70
2019-02-26T10:28:40.327Z,31.30
2019-02-26T10:31:09.724Z,30.67
2019-02-26T10:33:41.118Z,34.23
2019-02-26T10:36:11.186Z,33.70
2019-02-26T10:38:38.949Z,31.53
2019-02-26T10:41:07.239Z,31.87
2019-02-26T10:43:35.516Z,27.23
2019-02-26T10:46:03.798Z,31.30
2019-02-26T10:48:32.072Z,30.30
2019-02-26T10:51:00.597Z,31.93
2019-02-26T10:53:28.895Z,31.80
2019-02-26T10:55:57.181Z,30.77
2019-02-26T10:58:25.462Z,32.40
2019-02-26T11:00:55.598Z,31.80
2019-02-26T11:03:23.915Z,36.07
2019-02-26T11:05:52.483Z,30.73
2019-02-26T11:08:23.422Z,34.27
2019-02-26T11:10:52.384Z,33.17
2019-02-26T11:13:23.038Z,35.15
2019-02-26T11:15:53.441Z,33.27
2019-02-26T11:18:23.241Z,30.90
2019-02-26T11:20:52.868Z,32.30
2019-02-26T11:23:30.368Z,31.53
2019-02-26T11:25:50.784Z,34.10
2019-02-26T11:28:19.077Z,33.60
2019-02-26T11:30:49.068Z,32.57
2019-02-26T11:33:17.440Z,32.10
2019-02-26T11:35:47.064Z,34.80
2019-02-26T11:38:17.021Z,32.80
2019-02-26T11:40:45.720Z,34.20
2019-02-26T11:43:15.031Z,34.08
2019-02-26T11:45:44.520Z,34.30
2019-02-26T11:48:12.867Z,32.80
2019-02-26T11:50:44.239Z,33.20
2019-02-26T11:53:11.151Z,33.28
2019-02-26T11:55:39.423Z,31.53
2019-02-26T11:58:10.145Z,30.90
2019-02-26T12:00:42.224Z,30.97
2019-02-26T12:03:09.401Z,33.90
2019-02-26T12:05:41.221Z,32.40
2019-02-26T12:08:07.689Z,33.03
2019-02-26T12:10:37.782Z,30.90
2019-02-26T12:13:05.971Z,33.60
2019-02-26T12:15:36.261Z,31.00
2019-02-26T12:18:04.336Z,29.17
2019-02-26T12:20:32.679Z,25.92
2019-02-26T12:23:00.955Z,28.43
2019-02-26T12:25:29.230Z,28.70
2019-02-26T12:27:57.517Z,27.73
2019-02-26T12:30:27.033Z,26.50
2019-02-26T12:32:55.336Z,29.17
2019-02-26T12:35:23.601Z,27.83
2019-02-26T12:37:53.902Z,25.63
2019-02-26T12:40:25.130Z,27.50
2019-02-26T12:42:51.901Z,26.73
2019-02-26T12:45:26.102Z,24.00
2019-02-26T12:47:55.253Z,26.03
2019-02-26T12:50:28.974Z,23.13
2019-02-26T12:52:56.782Z,22.60
2019-02-26T12:55:29.555Z,21.80
2019-02-26T12:57:56.495Z,22.25
2019-02-26T13:00:24.911Z,20.63
2019-02-26T13:02:53.185Z,21.27
2019-02-26T13:05:23.050Z,21.60
2019-02-26T13:07:51.517Z,23.35
2019-02-26T13:10:22.978Z,23.22
2019-02-26T13:12:58.605Z,22.95
2019-02-26T13:15:21.887Z,24.85
2019-02-26T13:17:54.313Z,24.03
2019-02-26T13:20:27.618Z,23.13
2019-02-26T13:23:00.543Z,27.13
2019-02-26T13:25:26.901Z,24.98
2019-02-26T13:27:55.335Z,26.43
2019-02-26T13:30:27.504Z,26.37
2019-02-26T13:32:59.921Z,27.00
2019-02-26T13:35:25.800Z,25.80
2019-02-26T13:37:56.385Z,26.70
2019-02-26T13:40:25.118Z,27.13
2019-02-26T13:45:26.045Z,27.83
2019-02-26T13:48:00.867Z,25.70
2019-02-26T13:50:31.721Z,26.17
2019-02-26T13:53:00.063Z,24.97
2019-02-26T13:55:28.348Z,23.50
2019-02-26T13:57:56.619Z,22.98
2019-02-26T14:00:26.652Z,22.70
2019-02-26T14:02:54.936Z,24.03
2019-02-26T14:05:23.230Z,23.13
2019-02-26T14:07:51.644Z,20.63
2019-02-26T14:10:21.364Z,21.10
2019-02-26T14:12:49.722Z,18.53
2019-02-26T14:15:30.445Z,22.47
2019-02-26T14:17:58.784Z,23.35
2019-02-26T14:20:27.084Z,23.05
2019-02-26T14:22:55.363Z,21.33
2019-02-26T14:25:23.646Z,22.10
2019-02-26T14:27:52.003Z,22.60
2019-02-26T14:30:22.489Z,21.65
2019-02-26T14:32:50.784Z,23.97
2019-02-26T14:35:19.130Z,22.33
2019-02-26T14:37:47.484Z,21.50
2019-02-26T14:40:18.930Z,24.73
2019-02-26T14:42:47.216Z,25.30
2019-02-26T14:45:16.723Z,23.30
2019-02-26T14:47:45.004Z,23.23
2019-02-26T14:50:17.381Z,21.45
2019-02-26T14:52:46.247Z,22.97
2019-02-26T14:55:15.449Z,18.95
2019-02-26T14:57:43.765Z,21.60
2019-02-26T15:00:15.052Z,21.40
2019-02-26T15:02:46.230Z,22.17
2019-02-26T15:05:14.508Z,23.00
2019-02-26T15:07:42.796Z,23.43
2019-02-26T15:10:12.013Z,23.63
2019-02-26T15:12:40.295Z,23.53
2019-02-26T15:15:17.642Z,23.47
2019-02-26T15:17:45.987Z,22.87
2019-02-26T15:20:25.119Z,21.53
2019-02-26T15:22:53.553Z,25.30
2019-02-26T15:25:31.760Z,24.40
2019-02-26T15:28:05.075Z,23.77
2019-02-26T15:30:30.667Z,23.47
2019-02-26T15:32:58.955Z,21.75
2019-02-26T15:35:27.415Z,22.80
2019-02-26T15:37:55.684Z,21.30
2019-02-26T15:40:23.956Z,25.17
2019-02-26T15:42:54.411Z,25.00
2019-02-26T15:45:24.156Z,23.33
2019-02-26T15:47:52.539Z,22.87
2019-02-26T15:50:21.368Z,23.13
2019-02-26T15:52:52.616Z,23.70
2019-02-26T15:55:25.963Z,23.50
2019-02-26T15:57:55.336Z,25.37
2019-02-26T16:00:24.615Z,23.77
2019-02-26T16:02:53.644Z,25.53
2019-02-26T16:05:24.176Z,26.50
2019-02-26T16:07:52.611Z,26.73
2019-02-26T16:10:22.256Z,28.20
2019-02-26T16:12:51.157Z,27.17
2019-02-26T16:15:19.438Z,26.20
2019-02-26T16:17:47.716Z,26.50
2019-02-26T16:20:21.195Z,27.67
2019-02-26T16:22:49.471Z,26.50
2019-02-26T16:25:17.761Z,25.67
2019-02-26T16:27:46.037Z,29.47
2019-02-26T16:30:28.347Z,27.70
2019-02-26T16:32:56.624Z,27.70
2019-02-26T16:35:25.736Z,25.37
2019-02-26T16:37:54.056Z,24.98
2019-02-26T16:40:22.417Z,26.27
2019-02-26T16:42:50.714Z,25.63
2019-02-26T16:45:22.357Z,25.80
2019-02-26T16:47:50.656Z,24.87
2019-02-26T16:50:23.231Z,26.33
2019-02-26T16:52:51.516Z,25.95
2019-02-26T16:55:20.233Z,24.72
2019-02-26T16:57:48.692Z,25.68
2019-02-26T17:00:30.004Z,26.23
2019-02-26T17:03:00.974Z,25.72
2019-02-26T17:05:28.479Z,26.93
2019-02-26T17:07:57.047Z,25.13
2019-02-26T17:10:29.055Z,26.00
2019-02-26T17:12:56.292Z,26.90
2019-02-26T17:15:31.191Z,25.67
2019-02-26T17:17:59.535Z,25.37
2019-02-26T17:20:27.856Z,24.17
2019-02-26T17:22:56.088Z,26.03
2019-02-26T17:25:27.545Z,23.70
2019-02-26T17:27:54.396Z,24.77
2019-02-26T17:30:23.925Z,24.90
2019-02-26T17:32:52.651Z,25.10
2019-02-26T17:35:20.924Z,25.93
2019-02-26T17:37:49.197Z,25.67
2019-02-26T17:40:18.726Z,25.50
2019-02-26T17:42:48.815Z,25.60
2019-02-26T17:45:30.666Z,26.87
2019-02-26T17:47:58.960Z,26.90
2019-02-26T17:50:32.599Z,26.73
2019-02-26T17:53:00.890Z,25.90
2019-02-26T17:55:29.173Z,26.33
2019-02-26T17:57:57.494Z,24.27
2019-02-26T18:00:27.627Z,25.93
2019-02-26T18:02:55.883Z,26.75
2019-02-26T18:05:24.161Z,27.15
2019-02-26T18:07:52.460Z,27.63
2019-02-26T18:10:22.277Z,26.10
2019-02-26T18:12:50.551Z,27.02
2019-02-26T18:15:20.757Z,27.63
2019-02-26T18:17:48.907Z,27.17
2019-02-26T18:20:19.708Z,24.77
2019-02-26T18:22:48.160Z,27.80
2019-02-26T18:25:18.385Z,25.47
2019-02-26T18:27:46.832Z,25.57
2019-02-26T18:30:25.709Z,27.67
2019-02-26T18:32:56.426Z,29.63
2019-02-26T18:35:23.996Z,27.53
2019-02-26T18:37:52.280Z,31.07
2019-02-26T18:40:20.572Z,28.30
2019-02-26T18:42:49.086Z,29.82
2019-02-26T18:45:28.856Z,30.90
2019-02-26T18:47:57.460Z,28.17
2019-02-26T18:50:28.604Z,29.40
2019-02-26T18:52:58.063Z,29.77
2019-02-26T18:55:28.406Z,27.67
2019-02-26T18:57:56.377Z,32.48
2019-02-26T19:00:27.456Z,29.40
2019-02-26T19:02:55.730Z,28.90
2019-02-26T19:05:24.011Z,30.70
2019-02-26T19:07:52.280Z,28.90
2019-02-26T19:10:21.089Z,28.50
2019-02-26T19:12:49.406Z,29.77
2019-02-26T19:15:21.979Z,28.83
2019-02-26T19:17:52.098Z,28.62
2019-02-26T19:20:22.805Z,28.70
2019-02-26T19:22:52.040Z,28.47
2019-02-26T19:25:20.452Z,31.68
2019-02-26T19:27:52.844Z,33.08
2019-02-26T19:30:21.152Z,27.83
2019-02-26T19:32:49.458Z,31.53
2019-02-26T19:35:17.744Z,28.60
2019-02-26T19:37:47.872Z,31.80
2019-02-26T19:40:39.006Z,33.90
2019-02-26T19:43:07.139Z,33.83
2019-02-26T19:45:35.437Z,33.27
2019-02-26T19:48:03.700Z,34.87
2019-02-26T19:50:31.972Z,36.27
2019-02-26T19:53:02.503Z,33.43
2019-02-26T19:55:35.844Z,36.00
2019-02-26T19:58:06.697Z,36.47
2019-02-26T20:00:34.208Z,33.67
2019-02-26T20:03:04.891Z,34.47
2019-02-26T20:05:32.464Z,33.23
2019-02-26T20:08:05.007Z,36.20
2019-02-26T20:10:30.764Z,35.08
2019-02-26T20:13:01.336Z,33.67
2019-02-26T20:15:30.491Z,36.60
2019-02-26T20:17:58.824Z,32.93
2019-02-26T20:20:27.113Z,32.03
2019-02-26T20:22:55.411Z,35.20
2019-02-26T20:25:23.683Z,32.90
2019-02-26T20:27:54.620Z,34.30
2019-02-26T20:30:23.125Z,32.27
2019-02-26T20:32:51.485Z,34.63
2019-02-26T20:35:19.768Z,35.75
2019-02-26T20:37:48.051Z,36.23
2019-02-26T20:40:23.708Z,34.60
2019-02-26T20:42:52.076Z,32.53
2019-02-26T20:45:22.620Z,33.35
2019-02-26T20:47:51.067Z,36.30
2019-02-26T20:50:21.072Z,35.87
2019-02-26T20:52:49.397Z,32.83
2019-02-26T20:55:22.725Z,33.83
2019-02-26T20:57:51.015Z,32.03
2019-02-26T21:00:20.039Z,34.30
2019-02-26T21:02:51.564Z,36.33
2019-02-26T21:05:19.906Z,32.03
2019-02-26T21:07:49.676Z,34.80
2019-02-26T21:10:18.878Z,34.30
2019-02-26T21:12:47.240Z,34.97
2019-02-26T21:15:20.159Z,33.20
2019-02-26T21:17:48.455Z,43.33
2019-02-26T21:20:16.755Z,39.37
2019-02-26T21:22:45.050Z,38.93
2019-02-26T21:25:14.067Z,39.27
2019-02-26T21:27:42.370Z,40.83
2019-02-26T21:30:18.491Z,40.40
2019-02-26T21:32:46.783Z,42.10
2019-02-26T21:35:15.135Z,38.27
2019-02-26T21:37:43.410Z,40.97
2019-02-26T21:40:16.170Z,38.80
2019-02-26T21:42:45.109Z,35.30
2019-02-26T21:45:15.974Z,34.20
2019-02-26T21:47:44.607Z,37.20
2019-02-26T21:50:16.921Z,35.03
2019-02-26T21:52:59.013Z,33.08
2019-02-26T21:55:15.940Z,32.33
2019-02-26T21:57:44.236Z,35.75
2019-02-26T22:00:15.955Z,34.60
2019-02-26T22:02:44.529Z,29.77
2019-02-26T22:05:12.800Z,30.10
2019-02-26T22:07:41.095Z,28.30
2019-02-26T22:10:15.484Z,27.63
2019-02-26T22:12:44.436Z,25.37
2019-02-26T22:15:14.367Z,30.27
2019-02-26T22:17:42.649Z,34.07
2019-02-26T22:20:23.469Z,32.37
2019-02-26T22:22:43.416Z,33.65
2019-02-26T22:25:16.057Z,32.67
2019-02-26T22:27:42.580Z,34.87
2019-02-26T22:30:15.797Z,32.90
2019-02-26T22:32:44.087Z,33.07
2019-02-26T22:35:12.373Z,36.40
2019-02-26T22:37:41.378Z,31.43
2019-02-26T22:40:13.870Z,32.60
2019-02-26T22:42:42.174Z,31.60
2019-02-26T22:45:14.854Z,34.07
2019-02-26T22:47:44.232Z,32.67
2019-02-26T22:50:17.369Z,32.20
2019-02-26T22:52:45.653Z,34.17
2019-02-26T22:55:16.601Z,32.67
2019-02-26T22:57:45.160Z,32.20
2019-02-26T23:00:23.899Z,34.43
2019-02-26T23:02:52.178Z,33.20
2019-02-26T23:05:20.461Z,33.15
2019-02-26T23:07:48.741Z,32.20
2019-02-26T23:10:17.114Z,34.27
2019-02-26T23:12:45.409Z,31.73
2019-02-26T23:15:13.690Z,33.43
2019-02-26T23:17:42.045Z,32.07
2019-02-26T23:20:11.700Z,33.20
2019-02-26T23:22:40.068Z,32.60
2019-02-26T23:25:09.310Z,33.60
2019-02-26T23:27:37.600Z,32.65
2019-02-26T23:30:09.218Z,32.80
2019-02-26T23:32:38.919Z,28.83
2019-02-26T23:35:10.695Z,33.97
2019-02-26T23:37:38.984Z,34.05
2019-02-26T23:40:10.059Z,32.25
2019-02-26T23:42:38.950Z,34.98
2019-02-26T23:45:12.522Z,32.57
2019-02-26T23:47:40.814Z,33.87
2019-02-26T23:50:10.630Z,34.13
2019-02-26T23:52:38.941Z,34.60
2019-02-26T23:55:13.021Z,32.47
2019-02-26T23:57:39.216Z,32.35
